Time;durP1;ratioP1;P1;durP2;ratioP2;P2;SDS_P1;SDS_P2;PMS_P1;PMS_P2;Temp;Humidity;BMP_temperature;BMP_pressure;BME280_temperature;BME280_humidity;BME280_pressure;Samples;Min_cycle;Max_cycle;Signal;HPM_P1;HPM_P2
2021/04/18 00:01:55;;;;;;;;;;;16.80;58.70;;;;;;5057352;28;20015;-93
2021/04/18 00:04:20;;;;;;;;;;;16.80;58.70;;;;;;5070725;28;19913;-95
2021/04/18 00:06:46;;;;;;;;;;;16.80;58.70;;;;;;5052141;28;19913;-90
2021/04/18 00:09:12;;;;;;;;;;;16.80;58.70;;;;;;5054505;28;19978;-92
2021/04/18 00:11:38;;;;;;;;;;;16.80;58.70;;;;;;5073518;28;19921;-94
2021/04/18 00:14:05;;;;;;;;;;;16.80;58.70;;;;;;5055743;28;19916;-92
2021/04/18 00:16:31;;;;;;;;;;;16.80;58.70;;;;;;5058684;28;19917;-92
2021/04/18 00:18:56;;;;;;;;;;;16.80;58.70;;;;;;5058368;28;19920;-93
2021/04/18 00:21:22;;;;;;;;;;;16.80;58.70;;;;;;5072506;28;19919;-94
2021/04/18 00:23:47;;;;;;;;;;;16.80;58.70;;;;;;5052658;28;19916;-90
2021/04/18 00:26:13;;;;;;;;;;;16.80;58.70;;;;;;5054512;28;19912;-93
2021/04/18 00:28:38;;;;;;;;;;;16.80;58.70;;;;;;5057247;28;19928;-91
2021/04/18 00:31:04;;;;;;;;;;;16.80;58.70;;;;;;5052046;28;19920;-92
2021/04/18 00:33:29;;;;;;;;;;;16.80;58.70;;;;;;5054534;28;19964;-94
2021/04/18 00:35:55;;;;;;;;;;;16.80;58.70;;;;;;5055897;28;20312;-93
2021/04/18 00:38:21;;;;;;;;;;;16.80;58.70;;;;;;5072906;28;20392;-92
2021/04/18 00:40:47;;;;;;;;;;;16.80;58.70;;;;;;5054105;28;19925;-91
2021/04/18 00:43:12;;;;;;;;;;;16.80;58.70;;;;;;5070947;28;19935;-94
2021/04/18 00:45:38;;;;;;;;;;;16.80;58.70;;;;;;5052371;28;19988;-84
2021/04/18 00:48:04;;;;;;;;;;;16.80;58.70;;;;;;5054411;28;19968;-89
2021/04/18 00:50:30;;;;;;;;;;;16.80;58.70;;;;;;5073154;28;19920;-89
2021/04/18 00:52:56;;;;;;;;;;;16.80;58.70;;;;;;5054903;28;20015;-87
2021/04/18 00:55:23;;;;;;;;;;;16.80;58.70;;;;;;5071928;28;20321;-88
2021/04/18 00:57:49;;;;;;;;;;;16.80;58.70;;;;;;5054555;28;19920;-89
2021/04/18 01:00:15;;;;;;;;;;;16.80;58.70;;;;;;5051577;28;20418;-88
2021/04/18 01:02:41;;;;;;;;;;;16.80;58.70;;;;;;5053979;28;19940;-88
2021/04/18 01:05:06;;;;;;;;;;;16.80;58.70;;;;;;5072138;28;19916;-89
2021/04/18 01:07:33;;;;;;;;;;;16.80;58.70;;;;;;5054789;28;19966;-88
2021/04/18 01:09:58;;;;;;;;;;;16.80;58.70;;;;;;5054422;28;19916;-88
2021/04/18 01:12:25;;;;;;;;;;;16.80;58.70;;;;;;5055565;28;19913;-89
2021/04/18 01:14:50;;;;;;;;;;;16.80;58.70;;;;;;5051068;28;19924;-89
2021/04/18 01:17:16;;;;;;;;;;;16.80;58.70;;;;;;5042991;28;19917;-88
2021/04/18 01:19:41;;;;;;;;;;;16.80;58.70;;;;;;5069591;28;20389;-88
2021/04/18 01:22:07;;;;;;;;;;;16.80;58.70;;;;;;5053452;28;19920;-89
2021/04/18 01:24:33;;;;;;;;;;;16.80;58.70;;;;;;5047989;28;19926;-88
2021/04/18 01:26:58;;;;;;;;;;;16.80;58.70;;;;;;5071615;28;19977;-89
2021/04/18 01:29:24;;;;;;;;;;;16.80;58.70;;;;;;5067626;28;20451;-89
2021/04/18 01:31:49;;;;;;;;;;;16.80;58.70;;;;;;5062302;28;19912;-88
2021/04/18 01:34:15;;;;;;;;;;;16.80;58.70;;;;;;5076668;28;19962;-89
2021/04/18 01:36:44;;;;;;;;;;;16.80;58.70;;;;;;5057813;28;20019;-88
2021/04/18 01:39:10;;;;;;;;;;;16.80;58.70;;;;;;5056623;28;19920;-89
2021/04/18 01:41:36;;;;;;;;;;;16.80;58.70;;;;;;5075567;28;19967;-89
2021/04/18 01:44:03;;;;;;;;;;;16.80;58.70;;;;;;5067245;28;19919;-88
2021/04/18 01:46:29;;;;;;;;;;;16.80;58.70;;;;;;5079430;28;19916;-89
2021/04/18 01:48:54;;;;;;;;;;;16.80;58.70;;;;;;5076307;28;19919;-88
2021/04/18 01:51:23;;;;;;;;;;;16.80;58.80;;;;;;5062791;28;19942;-89
2021/04/18 01:53:49;;;;;;;;;;;16.80;58.70;;;;;;5058461;28;19938;-89
2021/04/18 01:56:15;;;;;;;;;;;16.80;58.70;;;;;;5060615;28;19916;-88
2021/04/18 01:58:40;;;;;;;;;;;16.80;58.70;;;;;;5058622;28;19967;-89
2021/04/18 02:01:06;;;;;;;;;;;16.80;58.70;;;;;;5075703;28;19912;-88
2021/04/18 02:03:31;;;;;;;;;;;16.80;58.70;;;;;;5054852;28;19922;-88
2021/04/18 02:05:56;;;;;;;;;;;16.80;58.70;;;;;;5055248;28;19919;-89
2021/04/18 02:08:22;;;;;;;;;;;16.80;58.70;;;;;;5047531;28;20424;-89
2021/04/18 02:10:48;;;;;;;;;;;16.80;58.70;;;;;;5046043;28;19948;-89
2021/04/18 02:13:13;;;;;;;;;;;16.80;58.70;;;;;;5054426;28;19935;-88
2021/04/18 02:15:39;;;;;;;;;;;16.80;58.70;;;;;;5051033;28;20402;-90
2021/04/18 02:18:04;;;;;;;;;;;16.80;58.70;;;;;;5054943;28;19917;-90
2021/04/18 02:20:29;;;;;;;;;;;16.80;58.70;;;;;;5051491;28;19919;-89
2021/04/18 02:22:55;;;;;;;;;;;16.80;58.80;;;;;;5054589;28;19939;-89
2021/04/18 02:25:21;;;;;;;;;;;16.80;58.70;;;;;;5051787;28;20275;-89
2021/04/18 02:27:46;;;;;;;;;;;16.70;58.80;;;;;;5052627;28;20312;-89
2021/04/18 02:30:12;;;;;;;;;;;16.80;58.70;;;;;;5049828;28;19920;-89
2021/04/18 02:32:38;;;;;;;;;;;16.80;58.70;;;;;;5055185;28;19912;-89
2021/04/18 02:35:04;;;;;;;;;;;16.80;58.70;;;;;;5049741;28;19924;-89
2021/04/18 02:37:29;;;;;;;;;;;16.80;58.80;;;;;;5052673;28;19917;-90
2021/04/18 02:39:55;;;;;;;;;;;16.80;58.80;;;;;;5054523;28;19913;-90
2021/04/18 02:42:20;;;;;;;;;;;16.80;58.80;;;;;;5053697;28;20290;-89
2021/04/18 02:44:46;;;;;;;;;;;16.80;58.70;;;;;;5055370;28;19913;-89
2021/04/18 02:47:11;;;;;;;;;;;16.70;58.70;;;;;;5058453;28;19912;-88
2021/04/18 02:49:37;;;;;;;;;;;16.80;58.70;;;;;;5053711;28;19919;-89
2021/04/18 02:52:03;;;;;;;;;;;16.80;58.70;;;;;;5052365;28;19913;-90
2021/04/18 02:54:28;;;;;;;;;;;16.80;58.70;;;;;;5048131;28;19974;-89
2021/04/18 02:56:54;;;;;;;;;;;16.80;58.70;;;;;;5055076;28;19923;-89
2021/04/18 02:59:19;;;;;;;;;;;16.80;58.70;;;;;;5059817;28;19947;-88
2021/04/18 03:01:45;;;;;;;;;;;16.80;58.70;;;;;;5047708;28;20433;-90
2021/04/18 03:04:10;;;;;;;;;;;16.80;58.70;;;;;;5051562;28;19974;-89
2021/04/18 03:06:36;;;;;;;;;;;16.80;58.70;;;;;;5046139;28;20377;-88
2021/04/18 03:09:04;;;;;;;;;;;16.80;58.70;;;;;;5042240;28;19922;-89
2021/04/18 03:11:29;;;;;;;;;;;16.80;58.70;;;;;;5043470;28;20000;-89
2021/04/18 03:13:58;;;;;;;;;;;16.80;58.70;;;;;;5052995;28;19960;-89
2021/04/18 03:16:24;;;;;;;;;;;16.80;58.70;;;;;;5053985;28;19969;-89
2021/04/18 03:18:49;;;;;;;;;;;16.80;58.70;;;;;;5045564;28;19913;-90
2021/04/18 03:21:15;;;;;;;;;;;16.80;58.70;;;;;;5052014;28;19912;-89
2021/04/18 03:23:40;;;;;;;;;;;16.80;58.80;;;;;;5052962;28;19913;-89
2021/04/18 03:26:06;;;;;;;;;;;16.80;58.70;;;;;;5054396;28;19913;-89
2021/04/18 03:28:32;;;;;;;;;;;16.80;58.80;;;;;;5052296;28;20369;-89
2021/04/18 03:30:57;;;;;;;;;;;16.70;58.70;;;;;;5053723;28;19950;-89
2021/04/18 03:33:23;;;;;;;;;;;16.70;58.70;;;;;;5055766;28;20400;-88
2021/04/18 03:35:48;;;;;;;;;;;16.70;58.80;;;;;;5052484;28;19928;-91
2021/04/18 03:38:14;;;;;;;;;;;16.80;58.70;;;;;;5053927;28;19920;-86
2021/04/18 03:40:41;;;;;;;;;;;16.80;58.70;;;;;;5052391;28;19917;-90
2021/04/18 03:43:06;;;;;;;;;;;16.70;58.70;;;;;;5052668;28;19935;-88
2021/04/18 03:45:32;;;;;;;;;;;16.70;58.70;;;;;;5044045;28;19917;-88
2021/04/18 03:47:57;;;;;;;;;;;16.70;58.70;;;;;;5048015;28;20408;-88
2021/04/18 03:50:23;;;;;;;;;;;16.80;58.80;;;;;;5052837;28;19921;-89
2021/04/18 03:52:55;;;;;;;;;;;16.70;58.80;;;;;;5046230;28;20281;-88
2021/04/18 03:55:21;;;;;;;;;;;16.80;58.70;;;;;;5053437;28;19917;-89
2021/04/18 03:57:46;;;;;;;;;;;16.70;58.70;;;;;;5052483;28;19917;-87
2021/04/18 04:00:12;;;;;;;;;;;16.80;58.70;;;;;;5051062;28;19913;-88
2021/04/18 04:02:37;;;;;;;;;;;16.80;58.70;;;;;;5045766;28;19917;-88
2021/04/18 04:05:03;;;;;;;;;;;16.70;58.70;;;;;;5048106;28;19935;-88
2021/04/18 04:07:28;;;;;;;;;;;16.70;58.70;;;;;;5069653;28;19924;-88
2021/04/18 04:09:54;;;;;;;;;;;16.70;58.70;;;;;;5073144;28;19913;-88
2021/04/18 04:12:19;;;;;;;;;;;16.70;58.70;;;;;;5055775;28;19913;-89
2021/04/18 04:14:48;;;;;;;;;;;16.70;58.70;;;;;;5069643;28;20369;-89
2021/04/18 04:17:14;;;;;;;;;;;16.70;58.70;;;;;;5072108;28;19924;-89
2021/04/18 04:19:39;;;;;;;;;;;16.70;58.70;;;;;;5055515;28;20419;-88
2021/04/18 04:22:05;;;;;;;;;;;16.70;58.70;;;;;;5072031;28;19916;-88
2021/04/18 04:24:30;;;;;;;;;;;16.70;58.70;;;;;;5056026;28;19913;-88
2021/04/18 04:26:56;;;;;;;;;;;16.80;58.70;;;;;;5059061;28;19913;-88
2021/04/18 04:29:21;;;;;;;;;;;16.70;58.70;;;;;;5072847;28;19916;-88
2021/04/18 04:31:47;;;;;;;;;;;16.80;58.70;;;;;;5055101;28;19913;-88
2021/04/18 04:34:12;;;;;;;;;;;16.70;58.70;;;;;;5056189;28;20366;-90
2021/04/18 04:36:38;;;;;;;;;;;16.70;58.70;;;;;;5050585;28;19917;-88
2021/04/18 04:39:05;;;;;;;;;;;16.70;58.70;;;;;;5052417;28;19920;-89
2021/04/18 04:41:31;;;;;;;;;;;16.70;58.70;;;;;;5071532;28;19942;-90
2021/04/18 04:43:56;;;;;;;;;;;16.80;58.70;;;;;;5072420;28;19963;-89
2021/04/18 04:46:22;;;;;;;;;;;16.70;58.70;;;;;;5074084;28;19908;-89
2021/04/18 04:48:47;;;;;;;;;;;16.70;58.70;;;;;;5051280;28;19913;-88
2021/04/18 04:51:13;;;;;;;;;;;16.70;58.70;;;;;;5052195;28;19920;-89
2021/04/18 04:53:38;;;;;;;;;;;16.70;58.70;;;;;;5050348;28;19912;-88
2021/04/18 04:56:04;;;;;;;;;;;16.70;58.70;;;;;;5054473;28;19924;-89
2021/04/18 04:58:30;;;;;;;;;;;16.70;58.70;;;;;;5055267;28;19912;-90
2021/04/18 05:00:55;;;;;;;;;;;16.70;58.70;;;;;;5055076;28;19927;-89
2021/04/18 05:03:25;;;;;;;;;;;16.70;58.70;;;;;;5073902;28;19936;-88
2021/04/18 05:05:51;;;;;;;;;;;16.70;58.70;;;;;;5057880;28;19912;-89
2021/04/18 05:08:16;;;;;;;;;;;16.70;58.60;;;;;;5046590;28;19944;-88
2021/04/18 05:10:42;;;;;;;;;;;16.80;58.60;;;;;;5034470;28;20358;-89
2021/04/18 05:13:07;;;;;;;;;;;16.80;58.60;;;;;;5035821;28;19921;-89
2021/04/18 05:15:33;;;;;;;;;;;16.70;58.60;;;;;;5032164;28;19962;-90
2021/04/18 05:17:58;;;;;;;;;;;16.80;58.70;;;;;;5034622;28;19932;-88
2021/04/18 05:20:24;;;;;;;;;;;16.80;58.60;;;;;;5035969;28;20366;-89
2021/04/18 05:22:49;;;;;;;;;;;16.70;58.60;;;;;;5035915;28;20055;-90
2021/04/18 05:25:15;;;;;;;;;;;16.70;58.60;;;;;;5035510;28;20055;-89
2021/04/18 05:27:41;;;;;;;;;;;16.80;58.60;;;;;;5036319;28;19936;-89
2021/04/18 05:30:08;;;;;;;;;;;16.70;58.60;;;;;;5036310;28;19913;-89
2021/04/18 05:32:34;;;;;;;;;;;16.80;58.60;;;;;;5029899;28;19913;-88
2021/04/18 05:35:00;;;;;;;;;;;16.80;58.60;;;;;;5036362;28;19917;-89
2021/04/18 05:37:26;;;;;;;;;;;16.80;58.50;;;;;;5035295;28;19924;-88
2021/04/18 05:39:51;;;;;;;;;;;16.80;58.60;;;;;;5034232;28;19944;-89
2021/04/18 05:42:17;;;;;;;;;;;16.80;58.50;;;;;;5034743;28;19949;-88
2021/04/18 05:44:42;;;;;;;;;;;16.80;58.50;;;;;;5033852;28;19913;-89
2021/04/18 05:47:08;;;;;;;;;;;16.80;58.50;;;;;;5051604;28;20019;-88
2021/04/18 05:49:34;;;;;;;;;;;16.80;58.50;;;;;;5032080;28;19913;-89
2021/04/18 05:51:59;;;;;;;;;;;16.80;58.50;;;;;;5034453;28;19929;-89
2021/04/18 05:54:25;;;;;;;;;;;16.80;58.50;;;;;;5031811;28;20477;-88
2021/04/18 05:56:50;;;;;;;;;;;16.80;58.40;;;;;;5031918;28;19921;-88
2021/04/18 05:59:16;;;;;;;;;;;16.80;58.40;;;;;;5032151;28;19919;-90
2021/04/18 06:01:42;;;;;;;;;;;16.80;58.40;;;;;;5031653;28;19967;-90
2021/04/18 06:04:07;;;;;;;;;;;16.80;58.40;;;;;;5034866;28;20355;-90
2021/04/18 06:06:33;;;;;;;;;;;16.80;58.40;;;;;;5035105;28;19917;-90
2021/04/18 06:08:58;;;;;;;;;;;16.80;58.40;;;;;;5047399;28;19936;-90
2021/04/18 06:11:24;;;;;;;;;;;16.80;58.40;;;;;;5053320;28;19912;-90
2021/04/18 06:13:49;;;;;;;;;;;16.80;58.30;;;;;;5054341;28;19952;-91
2021/04/18 06:16:15;;;;;;;;;;;16.80;58.30;;;;;;5052876;28;20325;-90
2021/04/18 06:18:41;;;;;;;;;;;16.80;58.30;;;;;;5055486;28;19920;-91
2021/04/18 06:21:06;;;;;;;;;;;16.80;58.30;;;;;;5051119;28;19919;-90
2021/04/18 06:23:32;;;;;;;;;;;16.80;58.20;;;;;;5055820;28;20356;-91
2021/04/18 06:25:58;;;;;;;;;;;16.80;58.20;;;;;;5054692;28;20378;-91
2021/04/18 06:28:23;;;;;;;;;;;16.80;58.20;;;;;;5051492;28;20337;-91
2021/04/18 06:30:49;;;;;;;;;;;16.80;58.20;;;;;;5054574;28;20297;-90
2021/04/18 06:33:14;;;;;;;;;;;16.80;58.20;;;;;;5054938;28;19914;-91
2021/04/18 06:35:40;;;;;;;;;;;16.80;58.20;;;;;;5053002;28;19917;-90
2021/04/18 06:38:06;;;;;;;;;;;16.80;58.20;;;;;;5053719;28;19979;-89
2021/04/18 06:40:35;;;;;;;;;;;16.80;58.20;;;;;;5050994;28;19913;-89
2021/04/18 06:43:02;;;;;;;;;;;16.80;58.10;;;;;;5051683;28;20270;-89
2021/04/18 06:45:27;;;;;;;;;;;16.80;58.20;;;;;;5047931;28;19955;-90
2021/04/18 06:47:53;;;;;;;;;;;16.80;58.20;;;;;;5054618;28;19974;-86
2021/04/18 06:50:19;;;;;;;;;;;16.80;58.10;;;;;;5053852;28;19920;-87
2021/04/18 06:52:45;;;;;;;;;;;16.80;58.10;;;;;;5055164;28;20794;-89
2021/04/18 06:55:11;;;;;;;;;;;16.90;58.10;;;;;;5051601;28;19924;-88
2021/04/18 06:57:37;;;;;;;;;;;16.90;58.10;;;;;;5053919;28;19924;-89
2021/04/18 07:00:09;;;;;;;;;;;16.80;58.10;;;;;;5053426;28;19936;-90
2021/04/18 07:02:35;;;;;;;;;;;16.80;58.00;;;;;;5046969;28;19920;-88
2021/04/18 07:05:11;;;;;;;;;;;16.80;58.10;;;;;;5058295;28;19920;-90
2021/04/18 07:07:41;;;;;;;;;;;16.80;58.00;;;;;;5049849;28;19920;-89
2021/04/18 07:10:09;;;;;;;;;;;16.80;58.00;;;;;;5051732;28;19920;-90
2021/04/18 07:12:35;;;;;;;;;;;16.90;58.10;;;;;;5067962;28;20277;-89
2021/04/18 07:15:01;;;;;;;;;;;16.80;58.10;;;;;;5052655;28;19917;-89
2021/04/18 07:17:27;;;;;;;;;;;16.80;58.10;;;;;;5070040;28;19924;-89
2021/04/18 07:20:07;;;;;;;;;;;16.80;58.00;;;;;;5053359;28;19912;-90
2021/04/18 07:22:32;;;;;;;;;;;16.90;58.00;;;;;;5048140;28;20007;-89
2021/04/18 07:25:01;;;;;;;;;;;16.80;58.00;;;;;;5047272;28;20473;-90
2021/04/18 07:27:50;;;;;;;;;;;16.80;58.00;;;;;;5048361;28;19916;-91
2021/04/18 07:30:20;;;;;;;;;;;16.90;58.00;;;;;;5053571;28;19971;-90
2021/04/18 07:32:46;;;;;;;;;;;16.90;58.00;;;;;;5058784;28;19912;-90
2021/04/18 07:35:30;;;;;;;;;;;16.90;57.90;;;;;;5048989;28;19917;-90
2021/04/18 07:38:12;;;;;;;;;;;16.90;57.90;;;;;;5064962;28;19917;-88
2021/04/18 07:40:37;;;;;;;;;;;16.90;57.70;;;;;;5060114;28;19928;-84
2021/04/18 07:43:06;;;;;;;;;;;16.90;57.70;;;;;;5052067;28;19912;-86
2021/04/18 07:45:32;;;;;;;;;;;17.00;57.70;;;;;;5045405;28;19916;-87
2021/04/18 07:47:58;;;;;;;;;;;17.00;57.60;;;;;;5044412;28;19936;-89
2021/04/18 07:50:24;;;;;;;;;;;17.00;57.60;;;;;;5051863;28;19919;-88
2021/04/18 07:52:49;;;;;;;;;;;17.00;57.50;;;;;;5047794;28;19917;-88
2021/04/18 07:55:16;;;;;;;;;;;17.00;57.50;;;;;;5036469;28;19921;-88
2021/04/18 07:57:41;;;;;;;;;;;17.10;57.50;;;;;;5050231;28;19917;-89
2021/04/18 08:00:08;;;;;;;;;;;17.00;57.40;;;;;;5052542;28;19986;-88
2021/04/18 08:02:33;;;;;;;;;;;17.10;57.30;;;;;;5053863;28;19935;-88
2021/04/18 08:05:00;;;;;;;;;;;17.10;57.30;;;;;;5051300;28;20362;-87
2021/04/18 08:07:25;;;;;;;;;;;17.20;57.20;;;;;;5054929;28;19913;-88
2021/04/18 08:10:20;;;;;;;;;;;17.20;57.20;;;;;;5061908;28;20384;-88
2021/04/18 08:12:59;;;;;;;;;;;17.20;57.10;;;;;;5055488;28;19920;-88
2021/04/18 08:15:25;;;;;;;;;;;17.30;56.90;;;;;;5051915;28;20006;-88
2021/04/18 08:18:10;;;;;;;;;;;17.30;56.80;;;;;;5049528;28;20006;-88
2021/04/18 08:20:46;;;;;;;;;;;17.30;56.70;;;;;;5072657;28;19909;-88
2021/04/18 08:23:16;;;;;;;;;;;17.30;56.60;;;;;;5057209;28;19912;-88
2021/04/18 08:26:01;;;;;;;;;;;17.30;56.50;;;;;;5054392;28;20448;-87
2021/04/18 08:28:26;;;;;;;;;;;17.30;56.40;;;;;;5069627;28;20411;-88
2021/04/18 08:31:07;;;;;;;;;;;17.30;56.40;;;;;;5055157;28;19912;-88
2021/04/18 08:33:38;;;;;;;;;;;17.30;56.40;;;;;;5073000;28;19912;-88
2021/04/18 08:36:13;;;;;;;;;;;17.40;56.30;;;;;;5037029;28;20416;-88
2021/04/18 08:38:39;;;;;;;;;;;17.40;56.30;;;;;;5049718;28;20380;-88
2021/04/18 08:41:05;;;;;;;;;;;17.40;56.20;;;;;;5052599;28;19917;-87
2021/04/18 08:43:31;;;;;;;;;;;17.40;56.20;;;;;;5067312;28;19916;-88
2021/04/18 08:46:00;;;;;;;;;;;17.40;56.20;;;;;;5069874;28;19920;-88
2021/04/18 08:48:25;;;;;;;;;;;17.40;56.30;;;;;;5050365;28;20025;-88
2021/04/18 08:51:01;;;;;;;;;;;17.40;56.30;;;;;;5053881;28;19967;-88
2021/04/18 08:53:28;;;;;;;;;;;17.30;56.40;;;;;;5053646;28;19912;-88
2021/04/18 08:55:59;;;;;;;;;;;17.30;56.50;;;;;;5054006;28;19924;-88
2021/04/18 08:58:38;;;;;;;;;;;17.30;56.60;;;;;;5056191;28;19939;-88
2021/04/18 09:01:07;;;;;;;;;;;17.30;56.70;;;;;;5072185;28;19912;-88
2021/04/18 09:03:33;;;;;;;;;;;17.20;56.80;;;;;;5071693;28;20257;-88
2021/04/18 09:06:18;;;;;;;;;;;17.20;56.90;;;;;;5053935;28;19927;-89
2021/04/18 09:08:51;;;;;;;;;;;17.20;56.90;;;;;;5053510;28;19920;-89
2021/04/18 09:11:16;;;;;;;;;;;17.10;57.00;;;;;;5046203;28;20030;-88
2021/04/18 09:13:58;;;;;;;;;;;17.10;57.10;;;;;;5071616;28;19921;-89
2021/04/18 09:16:28;;;;;;;;;;;17.20;57.10;;;;;;5072302;28;20011;-89
2021/04/18 09:19:13;;;;;;;;;;;17.10;57.10;;;;;;5054616;28;19914;-88
2021/04/18 09:21:39;;;;;;;;;;;17.20;57.10;;;;;;5054190;28;19955;-87
2021/04/18 09:24:04;;;;;;;;;;;17.20;57.00;;;;;;5053229;28;19975;-87
2021/04/18 09:26:30;;;;;;;;;;;17.20;57.00;;;;;;5048877;28;19923;-92
2021/04/18 09:29:13;;;;;;;;;;;17.20;57.00;;;;;;5054392;28;20012;-89
2021/04/18 09:31:57;;;;;;;;;;;17.10;57.10;;;;;;5053054;28;19913;-89
2021/04/18 09:34:23;;;;;;;;;;;17.10;57.10;;;;;;5071593;28;19912;-90
2021/04/18 09:36:50;;;;;;;;;;;17.20;57.10;;;;;;5056665;28;19927;-93
2021/04/18 09:39:15;;;;;;;;;;;17.20;57.00;;;;;;5054689;28;19912;-89
2021/04/18 09:41:41;;;;;;;;;;;17.20;57.00;;;;;;5054456;28;20015;-89
2021/04/18 09:44:08;;;;;;;;;;;17.20;56.90;;;;;;5070861;28;19917;-87
2021/04/18 09:46:43;;;;;;;;;;;17.20;56.90;;;;;;5056502;28;19913;-87
2021/04/18 09:49:09;;;;;;;;;;;17.20;56.90;;;;;;5070077;28;20331;-86
2021/04/18 09:51:50;;;;;;;;;;;17.30;56.70;;;;;;5074056;28;19925;-89
2021/04/18 09:54:25;;;;;;;;;;;17.30;56.60;;;;;;5074190;28;19913;-89
2021/04/18 09:57:09;;;;;;;;;;;17.30;56.50;;;;;;5072988;28;19923;-91
2021/04/18 09:59:34;;;;;;;;;;;17.40;56.40;;;;;;5070180;28;19913;-91
2021/04/18 10:02:20;;;;;;;;;;;17.30;56.30;;;;;;5056935;28;19965;-92
2021/04/18 10:04:46;;;;;;;;;;;17.30;56.30;;;;;;5070073;28;20278;-90
2021/04/18 10:07:27;;;;;;;;;;;17.30;56.30;;;;;;5057917;28;19913;-90
2021/04/18 10:09:53;;;;;;;;;;;17.40;56.30;;;;;;5069503;28;19924;-90
2021/04/18 10:12:19;;;;;;;;;;;17.30;56.30;;;;;;5060150;28;19963;-90
2021/04/18 10:14:45;;;;;;;;;;;17.30;56.30;;;;;;5075004;28;19962;-91
2021/04/18 10:17:11;;;;;;;;;;;17.30;56.40;;;;;;5071249;28;19917;-90
2021/04/18 10:19:52;;;;;;;;;;;17.30;56.40;;;;;;5055542;28;19912;-90
2021/04/18 10:22:17;;;;;;;;;;;17.30;56.40;;;;;;5057485;28;19919;-90
2021/04/18 10:24:50;;;;;;;;;;;17.40;56.30;;;;;;5057759;28;19912;-92
2021/04/18 10:27:24;;;;;;;;;;;17.40;56.10;;;;;;5057215;28;20320;-91
2021/04/18 10:29:49;;;;;;;;;;;17.50;56.00;;;;;;5057792;28;20366;-91
2021/04/18 10:32:18;;;;;;;;;;;17.50;56.00;;;;;;5071110;28;19920;-89
2021/04/18 10:34:45;;;;;;;;;;;17.40;56.10;;;;;;5073829;28;20058;-90
2021/04/18 10:37:11;;;;;;;;;;;17.40;56.20;;;;;;5059989;28;19917;-88
2021/04/18 10:39:36;;;;;;;;;;;17.30;56.30;;;;;;5049242;28;20362;-90
2021/04/18 10:42:02;;;;;;;;;;;17.30;56.40;;;;;;5055673;28;19956;-88
2021/04/18 10:44:28;;;;;;;;;;;17.40;56.40;;;;;;5055680;28;20374;-88
2021/04/18 10:46:53;;;;;;;;;;;17.30;56.30;;;;;;5074381;28;19916;-88
2021/04/18 10:49:19;;;;;;;;;;;17.40;56.20;;;;;;5056500;28;20258;-88
2021/04/18 10:51:45;;;;;;;;;;;17.40;56.20;;;;;;5056427;28;19947;-89
2021/04/18 10:54:10;;;;;;;;;;;17.40;56.10;;;;;;5056012;28;19951;-87
2021/04/18 10:56:36;;;;;;;;;;;17.40;56.10;;;;;;5057863;28;20285;-89
2021/04/18 10:59:02;;;;;;;;;;;17.40;56.10;;;;;;5053787;28;20388;-88
2021/04/18 11:01:28;;;;;;;;;;;17.40;56.10;;;;;;5055676;28;19999;-89
2021/04/18 11:03:53;;;;;;;;;;;17.40;56.10;;;;;;5057678;28;19962;-89
2021/04/18 11:06:19;;;;;;;;;;;17.40;56.10;;;;;;5075405;28;19917;-89
2021/04/18 11:08:45;;;;;;;;;;;17.50;56.00;;;;;;5076766;28;19920;-89
2021/04/18 11:11:11;;;;;;;;;;;17.50;56.00;;;;;;5075833;28;19916;-89
2021/04/18 11:13:37;;;;;;;;;;;17.50;55.90;;;;;;5073848;28;19920;-89
2021/04/18 11:16:03;;;;;;;;;;;17.50;55.90;;;;;;5058177;28;19920;-88
2021/04/18 11:18:28;;;;;;;;;;;17.60;55.80;;;;;;5059815;28;19916;-89
2021/04/18 11:20:54;;;;;;;;;;;17.50;55.70;;;;;;5053137;28;19912;-88
2021/04/18 11:23:19;;;;;;;;;;;17.50;55.70;;;;;;5074490;28;19927;-88
2021/04/18 11:25:45;;;;;;;;;;;17.60;55.70;;;;;;5070179;28;19942;-87
2021/04/18 11:28:10;;;;;;;;;;;17.60;55.60;;;;;;5074485;28;19920;-88
2021/04/18 11:30:36;;;;;;;;;;;17.60;55.60;;;;;;5071897;28;20006;-88
2021/04/18 11:33:01;;;;;;;;;;;17.50;55.70;;;;;;5057820;28;19939;-88
2021/04/18 11:35:32;;;;;;;;;;;17.50;55.80;;;;;;5072901;28;20007;-88
2021/04/18 11:38:02;;;;;;;;;;;17.40;55.90;;;;;;5055153;28;19989;-90
2021/04/18 11:40:29;;;;;;;;;;;17.50;56.00;;;;;;5057846;28;19912;-90
2021/04/18 11:42:55;;;;;;;;;;;17.40;56.10;;;;;;5073544;28;19912;-90
2021/04/18 11:45:20;;;;;;;;;;;17.50;56.10;;;;;;5059891;28;19958;-83
2021/04/18 11:47:46;;;;;;;;;;;17.50;56.10;;;;;;5073966;28;19966;-84
2021/04/18 11:50:13;;;;;;;;;;;17.50;56.00;;;;;;5072992;28;19920;-84
2021/04/18 11:52:38;;;;;;;;;;;17.50;56.00;;;;;;5058469;28;19936;-83
2021/04/18 11:55:04;;;;;;;;;;;17.40;56.00;;;;;;5061917;28;20281;-83
2021/04/18 11:57:30;;;;;;;;;;;17.40;56.00;;;;;;5054443;28;19916;-83
2021/04/18 11:59:56;;;;;;;;;;;17.40;56.10;;;;;;5073468;28;19913;-83
2021/04/18 12:02:22;;;;;;;;;;;17.40;56.10;;;;;;5073248;28;19944;-84
2021/04/18 12:04:47;;;;;;;;;;;17.40;56.20;;;;;;5060958;28;19912;-83
2021/04/18 12:07:13;;;;;;;;;;;17.30;56.20;;;;;;5072853;28;19920;-84
2021/04/18 12:09:38;;;;;;;;;;;17.40;56.20;;;;;;5064574;28;20386;-84
2021/04/18 12:12:04;;;;;;;;;;;17.40;56.20;;;;;;5053391;28;20011;-83
2021/04/18 12:14:30;;;;;;;;;;;17.40;56.20;;;;;;5052253;28;19913;-83
2021/04/18 12:16:55;;;;;;;;;;;17.40;56.10;;;;;;5052623;28;19916;-83
2021/04/18 12:19:21;;;;;;;;;;;17.40;56.10;;;;;;5050941;28;19943;-83
2021/04/18 12:21:46;;;;;;;;;;;17.40;56.10;;;;;;5050790;28;19913;-76
2021/04/18 12:24:12;;;;;;;;;;;17.40;56.10;;;;;;5050990;28;19928;-76
2021/04/18 12:26:37;;;;;;;;;;;17.40;56.10;;;;;;5052900;28;19959;-76
2021/04/18 12:29:03;;;;;;;;;;;17.40;56.10;;;;;;5052887;28;20372;-76
2021/04/18 12:31:28;;;;;;;;;;;17.40;56.10;;;;;;5052990;28;19920;-77
2021/04/18 12:33:55;;;;;;;;;;;17.40;56.00;;;;;;5051330;28;19913;-76
2021/04/18 12:36:20;;;;;;;;;;;17.50;56.10;;;;;;5054008;28;19917;-82
2021/04/18 12:38:46;;;;;;;;;;;17.40;56.10;;;;;;5052653;28;19917;-76
2021/04/18 12:41:12;;;;;;;;;;;17.30;56.20;;;;;;5041141;28;20354;-76
2021/04/18 12:43:37;;;;;;;;;;;17.40;56.20;;;;;;5049851;28;20432;-77
2021/04/18 12:46:03;;;;;;;;;;;17.30;56.30;;;;;;5052329;28;19999;-76
2021/04/18 12:48:28;;;;;;;;;;;17.30;56.30;;;;;;5052603;28;19921;-76
2021/04/18 12:50:54;;;;;;;;;;;17.30;56.30;;;;;;5049227;28;19948;-77
2021/04/18 12:53:19;;;;;;;;;;;17.40;56.30;;;;;;5055307;28;20285;-77
2021/04/18 12:55:45;;;;;;;;;;;17.40;56.20;;;;;;5051741;28;19917;-77
2021/04/18 12:58:10;;;;;;;;;;;17.40;56.20;;;;;;5050959;28;19923;-77
2021/04/18 13:00:36;;;;;;;;;;;17.40;56.20;;;;;;5052204;28;19948;-77
2021/04/18 13:03:02;;;;;;;;;;;17.40;56.10;;;;;;5052442;28;19928;-76
2021/04/18 13:05:28;;;;;;;;;;;17.40;56.10;;;;;;5047780;28;19971;-77
2021/04/18 13:07:54;;;;;;;;;;;17.40;56.10;;;;;;5055293;28;20370;-76
2021/04/18 13:10:21;;;;;;;;;;;17.40;56.20;;;;;;5054013;28;19913;-76
2021/04/18 13:12:48;;;;;;;;;;;17.40;56.20;;;;;;5071869;28;19909;-77
2021/04/18 13:15:16;;;;;;;;;;;17.40;56.20;;;;;;5070226;28;20463;-76
2021/04/18 13:17:42;;;;;;;;;;;17.40;56.20;;;;;;5053730;28;19917;-77
2021/04/18 13:20:07;;;;;;;;;;;17.40;56.10;;;;;;5054102;28;19958;-76
2021/04/18 13:22:33;;;;;;;;;;;17.40;56.00;;;;;;5068352;28;20389;-76
2021/04/18 13:24:59;;;;;;;;;;;17.50;56.00;;;;;;5068816;28;19952;-77
2021/04/18 13:27:24;;;;;;;;;;;17.50;55.90;;;;;;5074532;28;19917;-75
2021/04/18 13:29:50;;;;;;;;;;;17.50;55.90;;;;;;5054733;28;20347;-75
2021/04/18 13:32:16;;;;;;;;;;;17.50;55.90;;;;;;5074485;28;19923;-75
2021/04/18 13:34:42;;;;;;;;;;;17.50;55.90;;;;;;5070895;28;20008;-78
2021/04/18 13:37:08;;;;;;;;;;;17.50;56.40;;;;;;5058430;28;20357;-77
2021/04/18 13:39:34;;;;;;;;;;;17.50;56.40;;;;;;5055557;28;19919;-74
2021/04/18 13:42:00;;;;;;;;;;;17.60;56.60;;;;;;5057077;28;20370;-79
2021/04/18 13:44:25;;;;;;;;;;;17.60;56.50;;;;;;5074731;28;19919;-75
2021/04/18 13:46:51;;;;;;;;;;;17.70;56.80;;;;;;5074696;28;19919;-77
2021/04/18 13:49:16;;;;;;;;;;;17.90;57.30;;;;;;5074939;28;19923;-77
2021/04/18 13:51:42;;;;;;;;;;;18.00;58.70;;;;;;5054406;28;19919;-76
2021/04/18 13:54:08;;;;;;;;;;;18.10;59.90;;;;;;5074125;28;19912;-76
2021/04/18 13:56:34;;;;;;;;;;;18.30;61.00;;;;;;5073681;28;20030;-76
2021/04/18 13:58:59;;;;;;;;;;;18.30;62.30;;;;;;5059139;28;19947;-79
2021/04/18 14:01:25;;;;;;;;;;;18.50;63.50;;;;;;5075164;28;20312;-77
2021/04/18 14:03:52;;;;;;;;;;;18.60;64.60;;;;;;5056550;28;20309;-77
2021/04/18 14:06:18;;;;;;;;;;;18.70;65.50;;;;;;5074798;28;19943;-78
2021/04/18 14:08:43;;;;;;;;;;;18.80;66.30;;;;;;5051587;28;20412;-76
2021/04/18 14:11:09;;;;;;;;;;;18.80;67.10;;;;;;5054912;28;19917;-79
2021/04/18 14:13:35;;;;;;;;;;;18.80;67.90;;;;;;5055245;28;20328;-78
2021/04/18 14:16:02;;;;;;;;;;;18.90;68.70;;;;;;5053327;28;20015;-78